Katowice, Poland
Current Conditions -  °F | °C
As of 6:00 AM on Wednesday 26 Nov 2014 (Local Time) from EPKT Reporting Station
Moderate Fog Moderate Fog  
Wind Chill: 37°   Ceiling: 4000
Heat Index: 37°   Visibility: 0.56mi
Dew Point: 36°   Wind: 3mph
Humidity: 93%   Direction: 120°ESE
Pressure: 30.27"   Gusts: NA
Location:  50.26°N, 19.02°E
Report Text: EPKT 260400Z 12003KT 0900 R27/2000 FG SCT023 BKN040 03/02 Q1025
Loading
Personal Weather Stations






























Interactive Weather Map New forecast layout! Learn more

10-Day Weather Forecast

Advertisements
Track Severe Weather on mobile